createdAt,value
2024-03-26T00:03:51.066Z,100.00
2024-03-26T00:08:53.786Z,100.00
2024-03-26T00:13:57.916Z,100.00
2024-03-26T00:19:00.641Z,100.00
2024-03-26T00:24:03.344Z,100.00
2024-03-26T00:29:06.890Z,100.00
2024-03-26T00:34:09.645Z,100.00
2024-03-26T00:39:12.398Z,100.00
2024-03-26T00:44:15.076Z,100.00
2024-03-26T00:49:17.827Z,100.00
2024-03-26T00:54:22.165Z,100.00
2024-03-26T00:59:26.110Z,100.00
2024-03-26T01:04:28.846Z,100.00
2024-03-26T01:09:31.539Z,100.00
2024-03-26T01:14:34.231Z,100.00
2024-03-26T01:19:36.910Z,100.00
2024-03-26T01:24:39.907Z,100.00
2024-03-26T01:29:42.663Z,100.00
2024-03-26T01:34:45.366Z,100.00
2024-03-26T01:39:48.158Z,100.00
2024-03-26T01:44:50.870Z,100.00
2024-03-26T01:49:56.004Z,100.00
2024-03-26T01:54:59.882Z,100.00
2024-03-26T02:00:04.216Z,100.00
2024-03-26T02:05:07.290Z,100.00
2024-03-26T02:10:10.136Z,100.00
2024-03-26T02:15:12.875Z,100.00
2024-03-26T02:20:16.356Z,100.00
2024-03-26T02:25:19.004Z,100.00
2024-03-26T02:30:21.778Z,100.00
2024-03-26T02:35:24.491Z,100.00
2024-03-26T02:40:27.324Z,100.00
2024-03-26T02:45:30.265Z,100.00
2024-03-26T02:50:32.956Z,100.00
2024-03-26T02:55:35.643Z,100.00
2024-03-26T03:00:38.372Z,100.00
2024-03-26T03:05:41.862Z,100.00
2024-03-26T03:10:44.555Z,100.00
2024-03-26T03:15:47.247Z,100.00
2024-03-26T03:20:50.173Z,100.00
2024-03-26T03:25:57.374Z,100.00
2024-03-26T03:31:00.071Z,100.00
2024-03-26T03:36:02.796Z,100.00
2024-03-26T03:41:05.533Z,100.00
2024-03-26T03:46:08.240Z,100.00
2024-03-26T03:51:10.936Z,100.00
2024-03-26T03:56:13.631Z,100.00
2024-03-26T04:01:16.333Z,100.00
2024-03-26T04:06:19.045Z,100.00
2024-03-26T04:11:21.778Z,100.00
2024-03-26T04:16:24.669Z,100.00
2024-03-26T04:21:27.398Z,100.00
2024-03-26T04:26:30.149Z,100.00
2024-03-26T04:31:32.826Z,100.00
2024-03-26T04:36:35.518Z,100.00
2024-03-26T04:41:38.436Z,100.00
2024-03-26T04:46:41.146Z,100.00
2024-03-26T04:51:43.831Z,100.00
2024-03-26T04:56:46.517Z,100.00
2024-03-26T05:01:49.758Z,100.00
2024-03-26T05:06:52.459Z,100.00
2024-03-26T05:11:55.865Z,100.00
2024-03-26T05:16:58.636Z,100.00
2024-03-26T05:22:01.457Z,100.00
2024-03-26T05:27:04.287Z,100.00
2024-03-26T05:32:06.972Z,100.00
2024-03-26T05:37:09.658Z,100.00
2024-03-26T05:42:12.487Z,100.00
2024-03-26T05:47:15.253Z,100.00
2024-03-26T05:52:17.928Z,100.00
2024-03-26T05:57:20.736Z,100.00
2024-03-26T06:02:23.421Z,100.00
2024-03-26T06:07:26.127Z,100.00
2024-03-26T06:12:28.911Z,100.00
2024-03-26T06:17:31.747Z,100.00
2024-03-26T06:22:34.989Z,100.00
2024-03-26T06:27:37.668Z,100.00
2024-03-26T06:32:40.774Z,100.00
2024-03-26T06:37:43.609Z,100.00
2024-03-26T06:42:46.349Z,100.00
2024-03-26T06:47:49.483Z,100.00
2024-03-26T06:52:52.331Z,100.00
2024-03-26T06:57:55.156Z,100.00
2024-03-26T07:02:58.532Z,100.00
2024-03-26T07:08:02.775Z,100.00
2024-03-26T07:13:09.399Z,100.00
2024-03-26T07:18:16.201Z,100.00
2024-03-26T07:23:22.205Z,100.00
2024-03-26T07:28:26.591Z,100.00
2024-03-26T07:33:31.014Z,100.00
2024-03-26T07:38:35.273Z,100.00
2024-03-26T07:43:38.771Z,100.00
2024-03-26T07:48:41.399Z,100.00
2024-03-26T07:53:44.282Z,100.00
2024-03-26T07:58:47.384Z,100.00
2024-03-26T08:03:51.045Z,100.00
2024-03-26T08:08:55.319Z,100.00
2024-03-26T08:13:58.681Z,100.00
2024-03-26T08:19:01.689Z,100.00
2024-03-26T08:24:07.443Z,100.00
2024-03-26T08:29:10.199Z,100.00
2024-03-26T08:34:12.939Z,100.00
2024-03-26T08:39:15.691Z,100.00
2024-03-26T08:44:18.452Z,100.00
2024-03-26T08:49:21.273Z,100.00
2024-03-26T08:54:24.483Z,100.00
2024-03-26T08:59:27.308Z,100.00
2024-03-26T09:04:30.362Z,100.00
2024-03-26T09:09:33.509Z,100.00
2024-03-26T09:14:36.929Z,100.00
2024-03-26T09:19:39.896Z,100.00
2024-03-26T09:24:50.419Z,100.00
2024-03-26T09:29:54.049Z,100.00
2024-03-26T09:34:56.798Z,100.00
2024-03-26T09:39:59.487Z,100.00
2024-03-26T09:45:06.122Z,100.00
2024-03-26T09:50:12.153Z,100.00
2024-03-26T09:55:17.525Z,97.94
2024-03-26T10:00:21.352Z,98.16
2024-03-26T10:05:25.919Z,97.81
2024-03-26T10:10:32.955Z,97.18
2024-03-26T10:15:36.166Z,96.18
2024-03-26T10:20:39.756Z,96.65
2024-03-26T10:25:42.523Z,96.13
2024-03-26T10:30:46.277Z,93.74
2024-03-26T10:35:55.814Z,91.93
2024-03-26T10:41:04.086Z,91.96
2024-03-26T10:46:08.360Z,88.11
2024-03-26T10:51:12.733Z,86.31
2024-03-26T10:56:16.865Z,84.66
2024-03-26T11:01:22.538Z,85.08
2024-03-26T11:06:29.632Z,85.74
2024-03-26T11:11:45.839Z,86.67
2024-03-26T11:22:15.577Z,85.76
2024-03-26T11:27:18.433Z,84.04
2024-03-26T11:32:22.516Z,83.82
2024-03-26T11:37:26.046Z,83.49
2024-03-26T11:42:28.979Z,81.67
2024-03-26T11:47:35.751Z,82.83
2024-03-26T11:52:39.863Z,82.37
2024-03-26T11:57:44.098Z,82.42
2024-03-26T12:02:47.505Z,81.14
2024-03-26T12:07:52.655Z,80.95
2024-03-26T12:12:56.229Z,81.24
2024-03-26T12:17:59.284Z,80.48
2024-03-26T12:23:05.858Z,80.97
2024-03-26T12:28:13.611Z,75.61
2024-03-26T12:33:16.455Z,67.45
2024-03-26T12:38:19.258Z,66.53
2024-03-26T12:43:21.853Z,63.02
2024-03-26T12:48:24.761Z,63.68
2024-03-26T12:53:28.806Z,63.42
2024-03-26T12:58:31.860Z,62.35
2024-03-26T13:03:34.955Z,62.43
2024-03-26T13:08:37.777Z,61.91
2024-03-26T13:13:42.381Z,63.05
2024-03-26T13:18:45.076Z,62.63
2024-03-26T13:23:48.155Z,62.25
2024-03-26T13:28:50.876Z,62.41
2024-03-26T13:33:54.486Z,60.47
2024-03-26T13:38:57.237Z,59.63
2024-03-26T13:44:00.584Z,59.65
2024-03-26T13:49:04.038Z,58.78
2024-03-26T13:54:06.967Z,58.15
2024-03-26T13:59:09.581Z,56.72
2024-03-26T14:04:12.429Z,56.16
2024-03-26T14:09:15.861Z,56.28
2024-03-26T14:14:19.138Z,57.18
2024-03-26T14:19:21.995Z,56.71
2024-03-26T14:24:25.353Z,57.56
2024-03-26T14:29:28.115Z,58.65
2024-03-26T14:34:32.097Z,59.79
2024-03-26T14:39:35.340Z,57.52
2024-03-26T14:44:37.915Z,56.34
2024-03-26T14:49:40.647Z,55.73
2024-03-26T14:54:43.795Z,55.23
2024-03-26T14:59:46.694Z,55.48
2024-03-26T15:04:49.704Z,54.28
2024-03-26T15:09:52.918Z,54.00
2024-03-26T15:14:55.620Z,54.42
2024-03-26T15:19:58.910Z,53.37
2024-03-26T15:25:02.093Z,52.85
2024-03-26T15:30:26.453Z,51.03
2024-03-26T15:35:29.467Z,52.22
2024-03-26T15:40:32.368Z,51.65
2024-03-26T15:45:35.488Z,50.64
2024-03-26T15:50:38.399Z,51.00
2024-03-26T15:55:41.115Z,49.75
2024-03-26T16:00:43.893Z,49.69
2024-03-26T16:05:46.881Z,50.50
2024-03-26T16:11:08.280Z,50.39
2024-03-26T16:16:14.088Z,50.88
2024-03-26T16:21:17.106Z,51.39
2024-03-26T16:26:20.060Z,52.69
2024-03-26T16:31:24.132Z,54.60
2024-03-26T16:36:27.713Z,57.04
2024-03-26T16:41:34.169Z,59.79
2024-03-26T16:46:38.509Z,62.28
2024-03-26T16:51:44.254Z,64.88
2024-03-26T16:56:47.043Z,67.89
2024-03-26T17:01:49.847Z,70.27
2024-03-26T17:06:52.953Z,72.60
2024-03-26T17:11:56.066Z,75.55
2024-03-26T17:17:09.565Z,76.67
2024-03-26T17:22:17.275Z,79.12
2024-03-26T17:27:20.243Z,79.82
2024-03-26T17:32:23.068Z,81.15
2024-03-26T17:37:26.248Z,82.35
2024-03-26T17:42:33.463Z,84.04
2024-03-26T17:47:36.412Z,85.13
2024-03-26T17:52:39.233Z,86.12
2024-03-26T17:57:42.469Z,87.81
2024-03-26T18:02:49.571Z,88.08
2024-03-26T18:07:52.479Z,88.92
2024-03-26T18:12:55.711Z,90.07
2024-03-26T18:17:58.406Z,91.54
2024-03-26T18:23:01.190Z,91.71
2024-03-26T18:28:05.024Z,92.81
2024-03-26T18:33:08.785Z,93.28
2024-03-26T18:38:14.504Z,93.67
2024-03-26T18:43:17.307Z,94.04
2024-03-26T18:48:21.084Z,93.79
2024-03-26T18:53:25.218Z,93.51
2024-03-26T18:58:29.609Z,93.45
2024-03-26T19:03:32.815Z,92.99
2024-03-26T19:08:35.817Z,93.03
2024-03-26T19:13:38.620Z,93.04
2024-03-26T19:18:41.831Z,93.03
2024-03-26T19:23:44.939Z,93.73
2024-03-26T19:28:47.847Z,94.30
2024-03-26T19:33:50.649Z,94.98
2024-03-26T19:38:53.451Z,95.55
2024-03-26T19:43:56.249Z,96.64
2024-03-26T19:48:59.772Z,97.19
2024-03-26T19:54:02.577Z,97.29
2024-03-26T19:59:05.367Z,97.78
2024-03-26T20:04:09.609Z,97.55
2024-03-26T20:09:12.521Z,97.59
2024-03-26T20:14:15.720Z,97.45
2024-03-26T20:19:18.828Z,97.64
2024-03-26T20:24:21.939Z,98.17
2024-03-26T20:29:24.843Z,98.33
2024-03-26T20:34:29.556Z,98.26
2024-03-26T20:39:32.488Z,98.14
2024-03-26T20:44:37.455Z,97.95
2024-03-26T20:49:40.854Z,98.13
2024-03-26T20:54:43.661Z,97.91
2024-03-26T20:59:46.468Z,98.14
2024-03-26T21:04:49.277Z,98.62
2024-03-26T21:09:52.370Z,99.08
2024-03-26T21:14:55.298Z,99.40
2024-03-26T21:20:13.645Z,99.98
2024-03-26T21:25:16.662Z,100.00
2024-03-26T21:30:19.451Z,100.00
2024-03-26T21:35:23.477Z,100.00
2024-03-26T21:40:26.601Z,100.00
2024-03-26T21:45:29.233Z,100.00
2024-03-26T21:50:32.085Z,100.00
2024-03-26T21:55:35.604Z,100.00
2024-03-26T22:00:38.401Z,100.00
2024-03-26T22:05:41.715Z,100.00
2024-03-26T22:10:44.477Z,100.00
2024-03-26T22:15:47.521Z,100.00
2024-03-26T22:20:54.562Z,100.00
2024-03-26T22:26:09.012Z,100.00
2024-03-26T22:31:12.215Z,100.00
2024-03-26T22:36:15.317Z,100.00
2024-03-26T22:41:18.422Z,100.00
2024-03-26T22:46:21.231Z,100.00
2024-03-26T22:51:24.138Z,100.00
2024-03-26T22:56:27.549Z,100.00
2024-03-26T23:01:30.347Z,100.00
2024-03-26T23:06:33.147Z,100.00
2024-03-26T23:11:36.053Z,100.00
2024-03-26T23:16:38.806Z,100.00
2024-03-26T23:21:43.511Z,100.00
2024-03-26T23:26:46.301Z,100.00
2024-03-26T23:31:49.409Z,100.00
2024-03-26T23:36:52.214Z,100.00
2024-03-26T23:41:55.010Z,100.00
2024-03-26T23:46:57.817Z,100.00
2024-03-26T23:52:00.841Z,100.00
2024-03-26T23:57:03.764Z,100.00
